MSC Maria Saveria — 3FLE8 — position and weather

sailwx.info

Track history (hours):
 
Tides and Currents Weather Stations Pressure Air Temp Water Temp Dewpoint Dewpoint Depression Visibility Wind Speed Wind Dir Waves Ship Positions

MSC Maria Saveria

Last reported at 2014-Jul-31 16:15 UTC. Time now 2014-Jul-31 19:41 UTC.
Position N 31°28' E 032°19'.

Length 366 m; draft 14.4 m.

Type: Ship (hazmat cat A). MMSI: 372400000.

Date/timePositionNaut miles runAvg speedWind from/ knotsBaromVisibWave heightAir tempDewpointWater temp
2014-Jul-31 16:15N 31°28' E 032°19'4 6.3
2014-Jul-31 15:33N 31°31' E 032°14'1312.5
2014-Jul-31 14:33N 31°39' E 032°04'1513.0
2014-Jul-31 13:25N 31°49' E 031°50'5814.2
2014-Jul-31 09:19N 32°12' E 030°48'1114.5
2014-Jul-31 08:34N 32°17' E 030°36'1514.5
2014-Jul-31 07:33N 32°22' E 030°20'5814.4
2014-Jul-31 03:32N 32°46' E 029°17'1514.5
2014-Jul-31 02:31N 32°52' E 029°01'1414.3
2014-Jul-31 01:33N 32°58' E 028°46'1514.4
2014-Jul-31 00:31N 33°04' E 028°30'1514.7
2014-Jul-30 23:32N 33°10' E 028°14'1414.7
2014-Jul-30 22:33N 33°15' E 027°58'1614.7
2014-Jul-30 21:28N 33°22' E 027°41'1414.4
2014-Jul-30 20:31N 33°27' E 027°26'1614.5
2014-Jul-30 19:25N 33°34' E 027°09'1314.7
2014-Jul-30 18:33N 33°39' E 026°54'1514.6
2014-Jul-30 17:32N 33°45' E 026°38'1614.5
2014-Jul-30 16:28N 33°51' E 026°21'18814.6
2014-Jul-30 03:32N 35°08' E 022°53'1413.9
2014-Jul-30 02:32N 35°15' E 022°38'  
2014-Jul-26 22:22N 38°19' E 014°38'8 9.4
2014-Jul-26 21:34N 38°20' E 014°28'10 9.5
2014-Jul-26 20:28N 38°21' E 014°15'9 9.6
2014-Jul-26 19:33N 38°21' E 014°04'10 9.6
2014-Jul-26 18:32N 38°22' E 013°51'10 9.8
2014-Jul-26 17:33N 38°23' E 013°39'10 9.8
2014-Jul-26 16:34N 38°24' E 013°27'9 9.2
2014-Jul-26 15:33N 38°24' E 013°15'1111.0
2014-Jul-26 14:34N 38°25' E 013°01'1211.6
2014-Jul-26 13:34N 38°26' E 012°46'1412.0
2014-Jul-26 12:23N 38°27' E 012°28'2311.9
2014-Jul-26 10:28N 38°29' E 011°59'10114.4
2014-Jul-26 03:29N 38°36' E 009°51'1112.1
2014-Jul-26 02:33N 38°37' E 009°36'1212.2
2014-Jul-26 01:33N 38°38' E 009°21'1111.3
2014-Jul-26 00:33N 38°39' E 009°06'1111.1
2014-Jul-25 23:33N 38°40' E 008°52'1111.5
2014-Jul-25 22:33N 38°41' E 008°37'1211.7
2014-Jul-25 21:33N 38°42' E 008°22'1512.0
2014-Jul-25 20:19N 38°43' E 008°04'12112.3
2014-Jul-25 10:28N 38°52' E 005°29'1212.3
2014-Jul-25 09:28N 38°53' E 005°13'1212.5
2014-Jul-25 08:31N 38°54' E 004°58'2311.7
2014-Jul-25 06:33N 38°55' E 004°28'1211.8
2014-Jul-25 05:33N 38°57' E 004°13'1212.1
2014-Jul-25 04:33N 38°58' E 003°58'1212.1
2014-Jul-25 03:33N 38°59' E 003°42'1211.9
2014-Jul-25 02:33N 38°59' E 003°27'1212.1
2014-Jul-25 01:33N 39°00' E 003°11'1212.1
2014-Jul-25 00:33N 39°01' E 002°56'1211.9
2014-Jul-24 23:33N 39°03' E 002°41'1211.8
2014-Jul-24 22:33N 39°05' E 002°26'1211.9
2014-Jul-24 21:33N 39°07' E 002°11'1212.2
2014-Jul-24 20:33N 39°09' E 001°55'1212.3
2014-Jul-24 19:33N 39°11' E 001°39'1312.7
2014-Jul-24 18:33N 39°13' E 001°23'1212.0
2014-Jul-24 17:33N 39°14' E 001°08'1211.8
2014-Jul-24 16:33N 39°16' E 000°53'1211.8
2014-Jul-24 15:32N 39°18' E 000°38'1311.7
2014-Jul-24 14:27N 39°20' E 000°21'2411.7
2014-Jul-24 12:23N 39°23' W 000°10'7 8.0
2014-Jul-24 11:33N 39°25' W 000°18'1 1.4
2014-Jul-24 10:33N 39°26' W 000°19'0 0.0
2014-Jul-24 09:33N 39°26' W 000°19'0 0.0
2014-Jul-24 08:33N 39°26' W 000°19'0 0.0
2014-Jul-24 07:33N 39°26' W 000°19'0 0.0
2014-Jul-24 06:33N 39°26' W 000°19'0 0.0
2014-Jul-24 05:33N 39°26' W 000°19'0 0.0
2014-Jul-24 04:33N 39°26' W 000°19'0 0.0
2014-Jul-24 03:30N 39°26' W 000°19'0 0.0
2014-Jul-24 02:33N 39°26' W 000°19'0 0.0
2014-Jul-24 01:33N 39°26' W 000°19'0 0.0
2014-Jul-24 00:33N 39°26' W 000°19'0 0.0
2014-Jul-23 23:33N 39°26' W 000°19'0 0.0
2014-Jul-23 22:33N 39°26' W 000°19'0 0.0
2014-Jul-23 21:30N 39°26' W 000°19'0 0.0
2014-Jul-23 20:33N 39°26' W 000°19'0 0.0
2014-Jul-23 19:33N 39°26' W 000°19'0 0.0
2014-Jul-23 18:33N 39°26' W 000°19'0 0.0
2014-Jul-23 17:33N 39°26' W 000°19'0 0.0
2014-Jul-23 16:33N 39°26' W 000°19'0 0.0
2014-Jul-23 15:33N 39°26' W 000°19'0 0.0
2014-Jul-23 14:33N 39°26' W 000°19'0 0.0
2014-Jul-23 13:33N 39°26' W 000°19'0 0.0
2014-Jul-23 12:33N 39°26' W 000°19'0 0.0
2014-Jul-23 11:33N 39°26' W 000°19'0 0.0
2014-Jul-23 10:33N 39°26' W 000°19'0 0.0
2014-Jul-23 09:33N 39°26' W 000°19'0 0.0
2014-Jul-23 08:33N 39°26' W 000°19'0 0.0
2014-Jul-23 07:33N 39°26' W 000°19'0 0.0
2014-Jul-23 06:34N 39°26' W 000°19'2 2.1
2014-Jul-23 05:32N 39°25' W 000°17'1 0.9
2014-Jul-23 04:33N 39°24' W 000°16'0 0.0
2014-Jul-23 03:15N 39°24' W 000°16'0 0.1
2014-Jul-23 02:21N 39°24' W 000°16'0 0.1
2014-Jul-23 01:33N 39°24' W 000°16'0 0.0
2014-Jul-23 00:27N 39°24' W 000°16'0 0.0
2014-Jul-22 20:24N 39°24' W 000°16'0 0.0
2014-Jul-22 19:33N 39°24' W 000°16'0 0.0
2014-Jul-22 18:33N 39°24' W 000°16'0 0.0
2014-Jul-22 17:33N 39°24' W 000°16'0 0.0
2014-Jul-22 16:15N 39°24' W 000°16'0 0.0
2014-Jul-22 09:18N 39°24' W 000°16'0 0.1
2014-Jul-22 07:33N 39°24' W 000°16'0 0.1
2014-Jul-22 06:33N 39°24' W 000°16'0 0.0
2014-Jul-22 05:21N 39°24' W 000°16'0 0.0
2014-Jul-22 04:33N 39°24' W 000°16'0 0.0
2014-Jul-22 03:33N 39°24' W 000°16'0 0.0
2014-Jul-22 02:30N 39°24' W 000°16'0 0.0
2014-Jul-22 01:18N 39°24' W 000°16'0 0.1
2014-Jul-21 23:30N 39°24' W 000°16'0 0.1
2014-Jul-21 22:33N 39°24' W 000°16'0 0.0
2014-Jul-21 17:33N 39°24' W 000°16'  
Track history (hours):
 
Tides and Currents Weather Stations Pressure Air Temp Water Temp Dewpoint Dewpoint Depression Visibility Wind Speed Wind Dir Waves Ship Positions

MSC Maria Saveria

Last reported at 2014-Jul-31 16:15 UTC. Time now 2014-Jul-31 19:41 UTC.
Position N 31°28' E 032°19'.

Length 366 m; draft 14.4 m.

Type: Ship (hazmat cat A). MMSI: 372400000.

Date/timePositionNaut miles runAvg speedWind from/ knotsBaromVisibWave heightAir tempDewpointWater temp
2014-Jul-31 16:15N 31°28' E 032°19'4 6.3
2014-Jul-31 15:33N 31°31' E 032°14'1312.5
2014-Jul-31 14:33N 31°39' E 032°04'1513.0
2014-Jul-31 13:25N 31°49' E 031°50'5814.2
2014-Jul-31 09:19N 32°12' E 030°48'1114.5
2014-Jul-31 08:34N 32°17' E 030°36'1514.5
2014-Jul-31 07:33N 32°22' E 030°20'5814.4
2014-Jul-31 03:32N 32°46' E 029°17'1514.5
2014-Jul-31 02:31N 32°52' E 029°01'1414.3
2014-Jul-31 01:33N 32°58' E 028°46'1514.4
2014-Jul-31 00:31N 33°04' E 028°30'1514.7
2014-Jul-30 23:32N 33°10' E 028°14'1414.7
2014-Jul-30 22:33N 33°15' E 027°58'1614.7
2014-Jul-30 21:28N 33°22' E 027°41'1414.4
2014-Jul-30 20:31N 33°27' E 027°26'1614.5
2014-Jul-30 19:25N 33°34' E 027°09'1314.7
2014-Jul-30 18:33N 33°39' E 026°54'1514.6
2014-Jul-30 17:32N 33°45' E 026°38'1614.5
2014-Jul-30 16:28N 33°51' E 026°21'18814.6
2014-Jul-30 03:32N 35°08' E 022°53'1413.9
2014-Jul-30 02:32N 35°15' E 022°38'  
2014-Jul-26 22:22N 38°19' E 014°38'8 9.4
2014-Jul-26 21:34N 38°20' E 014°28'10 9.5
2014-Jul-26 20:28N 38°21' E 014°15'9 9.6
2014-Jul-26 19:33N 38°21' E 014°04'10 9.6
2014-Jul-26 18:32N 38°22' E 013°51'10 9.8
2014-Jul-26 17:33N 38°23' E 013°39'10 9.8
2014-Jul-26 16:34N 38°24' E 013°27'9 9.2
2014-Jul-26 15:33N 38°24' E 013°15'1111.0
2014-Jul-26 14:34N 38°25' E 013°01'1211.6
2014-Jul-26 13:34N 38°26' E 012°46'1412.0
2014-Jul-26 12:23N 38°27' E 012°28'2311.9
2014-Jul-26 10:28N 38°29' E 011°59'10114.4
2014-Jul-26 03:29N 38°36' E 009°51'1112.1
2014-Jul-26 02:33N 38°37' E 009°36'1212.2
2014-Jul-26 01:33N 38°38' E 009°21'1111.3
2014-Jul-26 00:33N 38°39' E 009°06'1111.1
2014-Jul-25 23:33N 38°40' E 008°52'1111.5
2014-Jul-25 22:33N 38°41' E 008°37'1211.7
2014-Jul-25 21:33N 38°42' E 008°22'1512.0
2014-Jul-25 20:19N 38°43' E 008°04'12112.3
2014-Jul-25 10:28N 38°52' E 005°29'1212.3
2014-Jul-25 09:28N 38°53' E 005°13'1212.5
2014-Jul-25 08:31N 38°54' E 004°58'2311.7
2014-Jul-25 06:33N 38°55' E 004°28'1211.8
2014-Jul-25 05:33N 38°57' E 004°13'1212.1
2014-Jul-25 04:33N 38°58' E 003°58'1212.1
2014-Jul-25 03:33N 38°59' E 003°42'1211.9
2014-Jul-25 02:33N 38°59' E 003°27'1212.1
2014-Jul-25 01:33N 39°00' E 003°11'1212.1
2014-Jul-25 00:33N 39°01' E 002°56'1211.9
2014-Jul-24 23:33N 39°03' E 002°41'1211.8
2014-Jul-24 22:33N 39°05' E 002°26'1211.9
2014-Jul-24 21:33N 39°07' E 002°11'1212.2
2014-Jul-24 20:33N 39°09' E 001°55'1212.3
2014-Jul-24 19:33N 39°11' E 001°39'1312.7
2014-Jul-24 18:33N 39°13' E 001°23'1212.0
2014-Jul-24 17:33N 39°14' E 001°08'1211.8
2014-Jul-24 16:33N 39°16' E 000°53'1211.8
2014-Jul-24 15:32N 39°18' E 000°38'1311.7
2014-Jul-24 14:27N 39°20' E 000°21'2411.7
2014-Jul-24 12:23N 39°23' W 000°10'7 8.0
2014-Jul-24 11:33N 39°25' W 000°18'1 1.4
2014-Jul-24 10:33N 39°26' W 000°19'0 0.0
2014-Jul-24 09:33N 39°26' W 000°19'0 0.0
2014-Jul-24 08:33N 39°26' W 000°19'0 0.0
2014-Jul-24 07:33N 39°26' W 000°19'0 0.0
2014-Jul-24 06:33N 39°26' W 000°19'0 0.0
2014-Jul-24 05:33N 39°26' W 000°19'0 0.0
2014-Jul-24 04:33N 39°26' W 000°19'0 0.0
2014-Jul-24 03:30N 39°26' W 000°19'0 0.0
2014-Jul-24 02:33N 39°26' W 000°19'0 0.0
2014-Jul-24 01:33N 39°26' W 000°19'0 0.0
2014-Jul-24 00:33N 39°26' W 000°19'0 0.0
2014-Jul-23 23:33N 39°26' W 000°19'0 0.0
2014-Jul-23 22:33N 39°26' W 000°19'0 0.0
2014-Jul-23 21:30N 39°26' W 000°19'0 0.0
2014-Jul-23 20:33N 39°26' W 000°19'0 0.0
2014-Jul-23 19:33N 39°26' W 000°19'0 0.0
2014-Jul-23 18:33N 39°26' W 000°19'0 0.0
2014-Jul-23 17:33N 39°26' W 000°19'0 0.0
2014-Jul-23 16:33N 39°26' W 000°19'0 0.0
2014-Jul-23 15:33N 39°26' W 000°19'0 0.0
2014-Jul-23 14:33N 39°26' W 000°19'0 0.0
2014-Jul-23 13:33N 39°26' W 000°19'0 0.0
2014-Jul-23 12:33N 39°26' W 000°19'0 0.0
2014-Jul-23 11:33N 39°26' W 000°19'0 0.0
2014-Jul-23 10:33N 39°26' W 000°19'0 0.0
2014-Jul-23 09:33N 39°26' W 000°19'0 0.0
2014-Jul-23 08:33N 39°26' W 000°19'0 0.0
2014-Jul-23 07:33N 39°26' W 000°19'0 0.0
2014-Jul-23 06:34N 39°26' W 000°19'2 2.1
2014-Jul-23 05:32N 39°25' W 000°17'1 0.9
2014-Jul-23 04:33N 39°24' W 000°16'0 0.0
2014-Jul-23 03:15N 39°24' W 000°16'0 0.1
2014-Jul-23 02:21N 39°24' W 000°16'0 0.1
2014-Jul-23 01:33N 39°24' W 000°16'0 0.0
2014-Jul-23 00:27N 39°24' W 000°16'0 0.0
2014-Jul-22 20:24N 39°24' W 000°16'0 0.0
2014-Jul-22 19:33N 39°24' W 000°16'0 0.0
2014-Jul-22 18:33N 39°24' W 000°16'0 0.0
2014-Jul-22 17:33N 39°24' W 000°16'0 0.0
2014-Jul-22 16:15N 39°24' W 000°16'0 0.0
2014-Jul-22 09:18N 39°24' W 000°16'0 0.1
2014-Jul-22 07:33N 39°24' W 000°16'0 0.1
2014-Jul-22 06:33N 39°24' W 000°16'0 0.0
2014-Jul-22 05:21N 39°24' W 000°16'0 0.0
2014-Jul-22 04:33N 39°24' W 000°16'0 0.0
2014-Jul-22 03:33N 39°24' W 000°16'0 0.0
2014-Jul-22 02:30N 39°24' W 000°16'0 0.0
2014-Jul-22 01:18N 39°24' W 000°16'0 0.1
2014-Jul-21 23:30N 39°24' W 000°16'0 0.1
2014-Jul-21 22:33N 39°24' W 000°16'0 0.0
2014-Jul-21 17:33N 39°24' W 000°16'  

Dump ship's entire track history